TAF and METAR

Could not understand the following METAR

YTEF 192100Z AUTO 13003KT 9999 // NCD 26/05 Q1016
No TAF available for Telfer Airport